createdAt,value
2019-05-21T00:01:40.003Z,94.68
2019-05-21T00:04:08.585Z,94.78
2019-05-21T00:06:37.068Z,94.46
2019-05-21T00:09:06.097Z,94.60
2019-05-21T00:11:34.567Z,94.58
2019-05-21T00:14:03.126Z,94.86
2019-05-21T00:16:31.590Z,95.24
2019-05-21T00:19:00.102Z,95.20
2019-05-21T00:21:28.554Z,95.02
2019-05-21T00:23:57.125Z,94.57
2019-05-21T00:26:25.555Z,95.08
2019-05-21T00:29:30.635Z,94.70
2019-05-21T00:32:35.517Z,94.98
2019-05-21T00:35:44.842Z,94.68
2019-05-21T00:38:51.895Z,94.85
2019-05-21T00:41:56.304Z,94.83
2019-05-21T00:44:24.736Z,94.84
2019-05-21T00:46:53.183Z,95.29
2019-05-21T00:49:21.687Z,95.18
2019-05-21T00:51:50.137Z,95.61
2019-05-21T00:54:18.588Z,94.95
2019-05-21T00:56:47.031Z,95.12
2019-05-21T00:59:15.490Z,95.34
2019-05-21T01:01:43.965Z,95.02
2019-05-21T01:04:12.709Z,95.45
2019-05-21T01:06:42.616Z,95.86
2019-05-21T01:09:11.285Z,95.28
2019-05-21T01:11:39.750Z,95.71
2019-05-21T01:14:08.353Z,95.65
2019-05-21T01:16:36.817Z,95.45
2019-05-21T01:19:05.279Z,96.27
2019-05-21T01:21:33.777Z,96.25
2019-05-21T01:24:02.230Z,96.52
2019-05-21T01:26:30.773Z,96.38
2019-05-21T01:28:59.218Z,96.71
2019-05-21T01:31:27.720Z,97.05
2019-05-21T01:33:56.182Z,97.78
2019-05-21T01:36:24.721Z,97.53
2019-05-21T01:38:53.344Z,97.43
2019-05-21T01:41:23.337Z,97.50
2019-05-21T01:43:51.786Z,97.62
2019-05-21T01:46:20.276Z,97.42
2019-05-21T01:48:48.766Z,97.29
2019-05-21T01:51:17.261Z,97.19
2019-05-21T01:53:45.734Z,96.85
2019-05-21T01:56:16.007Z,97.16
2019-05-21T01:58:44.449Z,97.05
2019-05-21T02:01:12.780Z,97.17
2019-05-21T02:03:41.224Z,97.16
2019-05-21T02:06:10.003Z,97.55
2019-05-21T02:08:38.642Z,97.31
2019-05-21T02:11:07.082Z,97.23
2019-05-21T02:13:35.552Z,97.30
2019-05-21T02:16:04.030Z,97.20
2019-05-21T02:18:32.567Z,97.15
2019-05-21T02:21:00.987Z,97.05
2019-05-21T02:23:29.434Z,97.45
2019-05-21T02:25:57.878Z,97.70
2019-05-21T02:28:26.427Z,96.90
2019-05-21T02:30:56.588Z,96.89
2019-05-21T02:33:25.043Z,96.87
2019-05-21T02:35:55.038Z,97.26
2019-05-21T02:38:23.694Z,97.27
2019-05-21T02:40:52.305Z,97.01
2019-05-21T02:43:20.745Z,97.42
2019-05-21T02:45:49.210Z,97.54
2019-05-21T02:48:17.666Z,97.65
2019-05-21T02:50:46.113Z,97.39
2019-05-21T02:53:14.638Z,97.76
2019-05-21T02:55:43.058Z,97.33
2019-05-21T02:58:11.503Z,97.32
2019-05-21T03:00:58.264Z,97.32
2019-05-21T03:03:28.432Z,97.58
2019-05-21T03:06:12.433Z,97.47
2019-05-21T03:08:27.128Z,97.53
2019-05-21T03:10:55.610Z,97.41
2019-05-21T03:13:24.100Z,97.68
2019-05-21T03:15:52.567Z,97.44
2019-05-21T03:18:21.047Z,97.34
2019-05-21T03:20:49.496Z,97.05
2019-05-21T03:23:17.940Z,97.34
2019-05-21T03:25:46.379Z,97.23
2019-05-21T03:28:14.816Z,97.01
2019-05-21T03:30:43.277Z,96.94
2019-05-21T03:33:11.793Z,97.09
2019-05-21T03:35:40.225Z,97.18
2019-05-21T03:38:08.669Z,96.89
2019-05-21T03:40:37.111Z,96.77
2019-05-21T03:43:05.538Z,96.76
2019-05-21T03:45:33.988Z,96.77
2019-05-21T03:48:04.061Z,96.64
2019-05-21T03:50:32.492Z,96.79
2019-05-21T03:53:00.917Z,97.32
2019-05-21T03:55:29.394Z,97.14
2019-05-21T03:57:57.818Z,97.06
2019-05-21T04:00:27.799Z,97.13
2019-05-21T04:02:56.244Z,97.04
2019-05-21T04:05:25.660Z,96.80
2019-05-21T04:07:54.118Z,96.82
2019-05-21T04:10:24.082Z,96.64
2019-05-21T04:13:07.779Z,96.64
2019-05-21T04:15:40.072Z,96.96
2019-05-21T04:18:12.886Z,97.00
2019-05-21T04:20:41.347Z,97.07
2019-05-21T04:23:09.799Z,97.15
2019-05-21T04:25:38.265Z,96.94
2019-05-21T04:28:06.685Z,96.49
2019-05-21T04:30:35.153Z,96.19
2019-05-21T04:33:03.627Z,96.29
2019-05-21T04:35:32.134Z,96.42
2019-05-21T04:38:00.564Z,96.83
2019-05-21T04:40:29.097Z,96.68
2019-05-21T04:43:01.853Z,96.72
2019-05-21T04:45:29.473Z,96.58
2019-05-21T04:47:57.888Z,96.53
2019-05-21T04:50:26.355Z,96.59
2019-05-21T04:52:54.858Z,96.76
2019-05-21T04:55:23.363Z,96.73
2019-05-21T04:57:51.824Z,96.94
2019-05-21T05:00:20.299Z,97.01
2019-05-21T05:02:48.781Z,96.89
2019-05-21T05:05:17.389Z,96.92
2019-05-21T05:07:45.881Z,96.66
2019-05-21T05:10:19.017Z,96.65
2019-05-21T05:12:49.014Z,96.93
2019-05-21T05:15:17.546Z,96.47
2019-05-21T05:17:46.082Z,96.12
2019-05-21T05:20:14.693Z,96.59
2019-05-21T05:22:46.477Z,96.09
2019-05-21T05:25:15.177Z,96.18
2019-05-21T05:27:43.675Z,96.18
2019-05-21T05:30:12.409Z,96.53
2019-05-21T05:32:40.928Z,95.84
2019-05-21T05:35:09.632Z,96.17
2019-05-21T05:37:43.909Z,95.79
2019-05-21T05:40:09.139Z,95.80
2019-05-21T05:42:40.245Z,96.18
2019-05-21T05:45:09.636Z,96.36
2019-05-21T05:47:38.202Z,96.14
2019-05-21T05:50:11.914Z,96.03
2019-05-21T05:52:40.389Z,96.00
2019-05-21T05:55:09.122Z,96.21
2019-05-21T05:57:37.646Z,95.87
2019-05-21T06:00:08.893Z,95.79
2019-05-21T06:02:37.368Z,95.68
2019-05-21T06:05:07.366Z,95.51
2019-05-21T06:07:35.895Z,95.25
2019-05-21T06:10:06.007Z,96.26
2019-05-21T06:12:34.703Z,95.46
2019-05-21T06:15:03.453Z,94.58
2019-05-21T06:17:31.911Z,95.11
2019-05-21T06:20:00.376Z,95.44
2019-05-21T06:22:29.003Z,94.84
2019-05-21T06:24:57.624Z,95.79
2019-05-21T06:27:26.087Z,95.74
2019-05-21T06:29:54.552Z,94.65
2019-05-21T06:32:23.054Z,94.62
2019-05-21T06:34:51.554Z,94.98
2019-05-21T06:37:20.078Z,95.08
2019-05-21T06:39:48.581Z,94.90
2019-05-21T06:42:17.064Z,94.20
2019-05-21T06:44:45.527Z,95.27
2019-05-21T06:47:13.948Z,94.64
2019-05-21T06:49:42.507Z,94.77
2019-05-21T06:52:10.979Z,95.01
2019-05-21T06:54:39.470Z,94.49
2019-05-21T06:57:07.970Z,94.30
2019-05-21T06:59:36.498Z,93.72
2019-05-21T07:02:05.013Z,93.39
2019-05-21T07:04:33.464Z,93.55
2019-05-21T07:07:01.926Z,93.17
2019-05-21T07:09:30.400Z,94.22
2019-05-21T07:11:58.846Z,94.18
2019-05-21T07:14:28.883Z,94.21
2019-05-21T07:16:57.374Z,95.60
2019-05-21T07:19:25.825Z,94.52
2019-05-21T07:21:54.321Z,95.13
2019-05-21T07:24:22.770Z,95.09
2019-05-21T07:26:51.249Z,95.57
2019-05-21T07:29:19.702Z,94.63
2019-05-21T07:31:48.960Z,94.59
2019-05-21T07:34:17.626Z,94.82
2019-05-21T07:36:46.069Z,95.72
2019-05-21T07:39:14.556Z,95.71
2019-05-21T07:41:44.577Z,94.60
2019-05-21T07:44:13.051Z,94.74
2019-05-21T07:46:44.097Z,95.33
2019-05-21T07:49:14.147Z,94.62
2019-05-21T07:51:45.000Z,95.06
2019-05-21T07:56:50.973Z,95.52
2019-05-21T07:59:19.642Z,95.39
2019-05-21T08:01:49.112Z,95.43
2019-05-21T08:04:21.967Z,94.70
2019-05-21T08:07:00.710Z,94.79
2019-05-21T08:09:30.396Z,93.76
2019-05-21T08:15:02.754Z,94.94
2019-05-21T08:17:34.364Z,94.29
2019-05-21T08:20:09.879Z,94.30
2019-05-21T08:22:41.103Z,93.48
2019-05-21T08:25:15.438Z,93.67
2019-05-21T08:27:44.846Z,94.28
2019-05-21T08:30:21.450Z,95.07
2019-05-21T08:32:51.958Z,95.28
2019-05-21T08:35:19.847Z,93.77
2019-05-21T08:37:48.350Z,94.67
2019-05-21T08:40:17.037Z,94.12
2019-05-21T08:42:47.056Z,95.32
2019-05-21T08:45:16.190Z,95.05
2019-05-21T08:47:44.712Z,94.11
2019-05-21T08:50:13.728Z,94.82
2019-05-21T08:52:42.209Z,94.62
2019-05-21T08:55:12.435Z,94.37
2019-05-21T08:57:41.124Z,94.67
2019-05-21T09:00:14.045Z,94.68
2019-05-21T09:02:42.523Z,93.98
2019-05-21T09:05:12.123Z,94.85
2019-05-21T09:07:40.599Z,94.50
2019-05-21T09:10:09.697Z,94.35
2019-05-21T09:12:39.820Z,94.61
2019-05-21T09:15:09.108Z,94.39
2019-05-21T09:17:37.635Z,93.59
2019-05-21T09:20:08.248Z,94.48
2019-05-21T09:22:36.715Z,95.22
2019-05-21T09:25:30.288Z,94.53
2019-05-21T09:27:58.861Z,95.04
2019-05-21T09:30:27.469Z,94.26
2019-05-21T09:32:55.999Z,94.49
2019-05-21T09:35:28.179Z,94.23
2019-05-21T09:37:56.800Z,94.87
2019-05-21T09:40:35.772Z,93.94
2019-05-21T09:43:04.326Z,94.11
2019-05-21T09:45:32.734Z,94.14
2019-05-21T09:48:01.400Z,93.59
2019-05-21T09:50:34.198Z,93.73
2019-05-21T09:53:02.937Z,93.39
2019-05-21T09:55:33.556Z,93.86
2019-05-21T09:58:12.342Z,94.13
2019-05-21T10:00:54.502Z,94.94
2019-05-21T10:03:39.995Z,94.79
2019-05-21T10:06:08.522Z,95.25
2019-05-21T10:08:37.351Z,93.97
2019-05-21T10:11:05.859Z,94.19
2019-05-21T10:13:34.727Z,93.10
2019-05-21T10:16:03.316Z,94.10
2019-05-21T10:18:36.079Z,93.96
2019-05-21T10:21:04.643Z,94.05
2019-05-21T10:23:34.839Z,94.31
2019-05-21T10:26:06.396Z,94.77
2019-05-21T10:28:37.114Z,94.73
2019-05-21T10:31:05.586Z,93.62
2019-05-21T10:33:35.872Z,94.33
2019-05-21T10:36:07.690Z,92.83
2019-05-21T10:38:36.282Z,94.03
2019-05-21T10:41:05.096Z,93.95
2019-05-21T10:43:33.652Z,94.27
2019-05-21T10:46:09.846Z,94.13
2019-05-21T10:48:43.006Z,94.69
2019-05-21T10:51:11.653Z,94.87
2019-05-21T10:53:40.198Z,94.60
2019-05-21T10:56:08.798Z,94.47
2019-05-21T10:58:37.270Z,93.61
2019-05-21T11:01:10.449Z,93.37
2019-05-21T11:03:46.061Z,93.12
2019-05-21T11:06:16.264Z,93.75
2019-05-21T11:08:44.816Z,93.56
2019-05-21T11:11:14.814Z,94.16
2019-05-21T11:13:43.339Z,93.51
2019-05-21T11:16:11.932Z,93.19
2019-05-21T11:18:40.398Z,93.82
2019-05-21T11:21:10.460Z,93.31
2019-05-21T11:23:38.954Z,93.81
2019-05-21T11:26:07.477Z,93.14
2019-05-21T11:28:35.936Z,93.14
2019-05-21T11:31:04.529Z,94.73
2019-05-21T11:33:32.976Z,93.70
2019-05-21T11:36:01.459Z,94.27
2019-05-21T11:38:39.456Z,93.27
2019-05-21T11:41:01.738Z,94.60
2019-05-21T11:43:30.257Z,94.50
2019-05-21T11:45:58.814Z,94.77
2019-05-21T11:48:27.371Z,94.85
2019-05-21T11:50:55.794Z,94.54
2019-05-21T11:53:24.346Z,95.19
2019-05-21T11:55:52.794Z,95.03
2019-05-21T11:58:21.230Z,95.07
2019-05-21T12:00:49.921Z,94.95
2019-05-21T12:03:18.449Z,95.39
2019-05-21T12:05:46.924Z,95.01
2019-05-21T12:08:15.369Z,95.54
2019-05-21T12:10:45.775Z,94.93
2019-05-21T12:13:20.225Z,94.50
2019-05-21T12:15:47.163Z,94.41
2019-05-21T12:18:15.611Z,94.37
2019-05-21T12:20:45.040Z,95.15
2019-05-21T12:23:13.523Z,94.69
2019-05-21T12:25:42.117Z,95.57
2019-05-21T12:28:11.442Z,95.66
2019-05-21T12:30:40.190Z,95.90
2019-05-21T12:33:08.659Z,95.86
2019-05-21T12:35:37.122Z,94.63
2019-05-21T12:38:05.622Z,95.20
2019-05-21T12:40:34.142Z,95.22
2019-05-21T12:43:02.585Z,95.87
2019-05-21T12:45:31.043Z,95.90
2019-05-21T12:47:59.644Z,96.30
2019-05-21T12:50:28.273Z,95.81
2019-05-21T12:52:56.718Z,95.21
2019-05-21T12:55:26.858Z,95.54
2019-05-21T12:57:55.227Z,96.10
2019-05-21T13:00:25.275Z,96.34
2019-05-21T13:02:53.808Z,96.12
2019-05-21T13:05:22.573Z,96.38
2019-05-21T13:07:51.008Z,95.86
2019-05-21T13:10:19.507Z,95.94
2019-05-21T13:12:48.028Z,96.52
2019-05-21T13:15:16.584Z,96.57
2019-05-21T13:17:45.184Z,96.34
2019-05-21T13:20:16.015Z,96.15
2019-05-21T13:22:43.827Z,97.00
2019-05-21T13:25:13.354Z,95.95
2019-05-21T13:27:42.209Z,95.99
2019-05-21T13:30:15.810Z,96.79
2019-05-21T13:32:44.308Z,97.23
2019-05-21T13:35:13.183Z,97.52
2019-05-21T13:37:46.764Z,96.97
2019-05-21T13:40:15.813Z,96.68
2019-05-21T13:42:44.307Z,96.99
2019-05-21T13:45:14.997Z,97.12
2019-05-21T13:47:46.577Z,97.28
2019-05-21T13:50:17.831Z,97.18
2019-05-21T13:52:47.993Z,97.96
2019-05-21T13:55:16.787Z,97.58
2019-05-21T13:57:45.341Z,97.73
2019-05-21T14:00:25.446Z,97.96
2019-05-21T14:02:55.502Z,98.08
2019-05-21T14:05:24.414Z,97.77
2019-05-21T14:07:52.910Z,97.48
2019-05-21T14:10:23.108Z,97.52
2019-05-21T14:12:51.527Z,97.27
2019-05-21T14:15:20.069Z,97.33
2019-05-21T14:17:50.011Z,96.84
2019-05-21T14:20:18.686Z,96.24
2019-05-21T14:22:47.212Z,96.16
2019-05-21T14:25:18.489Z,96.33
2019-05-21T14:27:47.075Z,95.77
2019-05-21T14:30:17.338Z,95.44
2019-05-21T14:32:45.846Z,95.39
2019-05-21T14:35:14.310Z,94.99
2019-05-21T14:37:42.769Z,94.82
2019-05-21T14:40:30.367Z,94.37
2019-05-21T14:42:58.587Z,94.36
2019-05-21T14:45:15.850Z,93.98
2019-05-21T14:47:45.511Z,94.12
2019-05-21T14:50:14.143Z,95.34
2019-05-21T14:52:42.618Z,94.72
2019-05-21T14:55:12.204Z,94.80
2019-05-21T14:57:40.655Z,94.81
2019-05-21T15:00:17.584Z,93.15
2019-05-21T15:02:46.171Z,93.25
2019-05-21T15:05:14.887Z,93.02
2019-05-21T15:07:43.372Z,93.00
2019-05-21T15:10:13.528Z,92.71
2019-05-21T15:12:46.359Z,91.63
2019-05-21T15:15:17.684Z,92.22
2019-05-21T15:17:47.772Z,91.50
2019-05-21T15:20:18.884Z,91.76
2019-05-21T15:22:47.396Z,89.91
2019-05-21T15:25:15.924Z,88.18
2019-05-21T15:27:44.493Z,89.40
2019-05-21T15:30:13.507Z,90.03
2019-05-21T15:32:42.026Z,88.15
2019-05-21T15:35:10.595Z,86.46
2019-05-21T15:37:39.743Z,87.39
2019-05-21T15:40:08.698Z,86.04
2019-05-21T15:42:38.955Z,85.92
2019-05-21T15:45:07.773Z,86.42
2019-05-21T15:47:36.364Z,85.70
2019-05-21T15:50:05.510Z,86.33
2019-05-21T15:52:35.420Z,87.21
2019-05-21T15:55:07.299Z,88.05
2019-05-21T15:57:36.142Z,88.05
2019-05-21T16:00:07.583Z,85.85
2019-05-21T16:02:45.093Z,85.98
2019-05-21T16:05:14.477Z,86.48
2019-05-21T16:07:43.028Z,88.06
2019-05-21T16:10:11.947Z,86.96
2019-05-21T16:12:40.449Z,86.26
2019-05-21T16:15:11.973Z,85.76
2019-05-21T16:17:40.508Z,86.34
2019-05-21T16:20:11.541Z,88.14
2019-05-21T16:22:44.055Z,86.91
2019-05-21T16:25:17.463Z,87.50
2019-05-21T16:27:48.570Z,86.91
2019-05-21T16:30:18.619Z,87.50
2019-05-21T16:32:47.627Z,88.32
2019-05-21T16:35:16.579Z,91.40
2019-05-21T16:37:45.119Z,88.82
2019-05-21T16:40:17.013Z,89.61
2019-05-21T16:42:45.700Z,90.21
2019-05-21T16:45:14.397Z,91.27
2019-05-21T16:47:46.080Z,90.92
2019-05-21T16:50:15.993Z,90.48
2019-05-21T16:52:44.588Z,92.13
2019-05-21T16:55:13.970Z,92.37
2019-05-21T16:57:45.788Z,90.80
2019-05-21T17:00:16.097Z,90.72
2019-05-21T17:02:49.735Z,90.53
2019-05-21T17:05:18.768Z,90.74
2019-05-21T17:07:47.366Z,92.52
2019-05-21T17:10:16.977Z,92.63
2019-05-21T17:12:48.545Z,94.00
2019-05-21T17:15:19.314Z,92.60
2019-05-21T17:17:51.814Z,93.22
2019-05-21T17:20:20.952Z,93.57
2019-05-21T17:22:49.492Z,88.15
2019-05-21T17:25:19.642Z,88.53
2019-05-21T17:27:49.726Z,89.39
2019-05-21T17:30:20.070Z,89.00
2019-05-21T17:32:57.444Z,88.13
2019-05-21T17:35:28.749Z,87.41
2019-05-21T17:37:59.910Z,87.30
2019-05-21T17:40:28.521Z,88.50
2019-05-21T17:42:59.980Z,88.64
2019-05-21T17:45:29.902Z,87.71
2019-05-21T17:47:58.383Z,88.67
2019-05-21T17:50:28.491Z,88.29
2019-05-21T17:52:56.997Z,89.84
2019-05-21T17:55:27.517Z,89.38
2019-05-21T17:57:56.111Z,87.69
2019-05-21T18:00:27.846Z,88.04
2019-05-21T18:03:01.108Z,88.26
2019-05-21T18:05:30.228Z,87.21
2019-05-21T18:08:00.299Z,86.37
2019-05-21T18:10:29.189Z,87.65
2019-05-21T18:12:59.259Z,87.36
2019-05-21T18:15:32.513Z,85.85
2019-05-21T18:18:02.612Z,86.94
2019-05-21T18:20:33.570Z,89.12
2019-05-21T18:23:09.322Z,89.28
2019-05-21T18:25:39.076Z,85.36
2019-05-21T18:28:07.713Z,84.90
2019-05-21T18:30:36.477Z,84.83
2019-05-21T18:33:08.904Z,86.91
2019-05-21T18:35:37.352Z,86.20
2019-05-21T18:38:09.285Z,85.41
2019-05-21T18:40:39.334Z,86.01
2019-05-21T18:43:07.995Z,87.29
2019-05-21T18:45:39.874Z,86.80
2019-05-21T18:48:08.733Z,86.61
2019-05-21T18:50:38.771Z,87.28
2019-05-21T18:53:08.119Z,87.07
2019-05-21T18:55:38.177Z,86.97
2019-05-21T18:58:07.813Z,88.36
2019-05-21T19:00:39.146Z,87.54
2019-05-21T19:03:10.410Z,88.14
2019-05-21T19:05:38.949Z,87.09
2019-05-21T19:08:07.579Z,87.42
2019-05-21T19:10:36.185Z,87.44
2019-05-21T19:13:06.246Z,87.99
2019-05-21T19:15:40.971Z,88.23
2019-05-21T19:18:09.389Z,89.18
2019-05-21T19:20:39.421Z,88.13
2019-05-21T19:23:09.457Z,87.85
2019-05-21T19:25:39.467Z,87.45
2019-05-21T19:28:08.006Z,87.62
2019-05-21T19:30:38.171Z,88.15
2019-05-21T19:33:06.790Z,88.21
2019-05-21T19:35:35.317Z,87.78
2019-05-21T19:38:07.110Z,89.38
2019-05-21T19:40:35.579Z,87.95
2019-05-21T19:43:04.095Z,88.07
2019-05-21T19:45:34.186Z,88.01
2019-05-21T19:48:02.686Z,88.20
2019-05-21T19:50:31.232Z,87.63
2019-05-21T19:52:59.733Z,87.62
2019-05-21T19:55:29.608Z,88.16
2019-05-21T19:57:58.139Z,87.40
2019-05-21T20:00:29.265Z,87.50
2019-05-21T20:02:59.314Z,87.77
2019-05-21T20:05:28.203Z,88.23
2019-05-21T20:07:56.703Z,88.30
2019-05-21T20:10:25.217Z,88.50
2019-05-21T20:12:53.884Z,89.27
2019-05-21T20:15:22.375Z,88.63
2019-05-21T20:18:06.240Z,88.46
2019-05-21T20:20:23.037Z,88.32
2019-05-21T20:22:54.085Z,88.58
2019-05-21T20:25:23.432Z,88.67
2019-05-21T20:27:55.790Z,90.08
2019-05-21T20:30:24.950Z,89.52
2019-05-21T20:32:54.280Z,88.98
2019-05-21T20:35:25.627Z,89.03
2019-05-21T20:37:59.391Z,89.45
2019-05-21T20:40:25.693Z,88.90
2019-05-21T20:42:54.616Z,89.01
2019-05-21T20:45:23.213Z,88.80
2019-05-21T20:47:53.350Z,88.53
2019-05-21T20:50:24.256Z,89.46
2019-05-21T20:52:52.028Z,89.62
2019-05-21T20:55:22.281Z,89.70
2019-05-21T20:57:50.858Z,88.54
2019-05-21T21:00:23.939Z,89.30
2019-05-21T21:02:53.087Z,89.62
2019-05-21T21:05:21.783Z,89.08
2019-05-21T21:07:53.762Z,89.70
2019-05-21T21:10:22.433Z,89.36
2019-05-21T21:12:51.229Z,89.66
2019-05-21T21:15:20.294Z,89.56
2019-05-21T21:18:06.788Z,89.51
2019-05-21T21:20:36.980Z,89.61
2019-05-21T21:23:10.803Z,89.08
2019-05-21T21:25:45.674Z,89.49
2019-05-21T21:28:20.414Z,88.75
2019-05-21T21:30:49.084Z,88.98
2019-05-21T21:33:41.959Z,89.59
2019-05-21T21:35:58.513Z,89.50
2019-05-21T21:38:33.313Z,89.20
2019-05-21T21:41:02.589Z,88.51
2019-05-21T21:43:31.224Z,88.99
2019-05-21T21:45:59.935Z,89.07
2019-05-21T21:48:34.342Z,89.75
2019-05-21T21:51:07.395Z,89.21
2019-05-21T21:53:37.016Z,89.04
2019-05-21T21:56:05.545Z,88.72
2019-05-21T21:58:34.061Z,89.47
2019-05-21T22:01:07.235Z,89.14
2019-05-21T22:03:37.576Z,88.83
2019-05-21T22:06:10.044Z,88.84
2019-05-21T22:08:39.012Z,88.96
2019-05-21T22:11:11.984Z,88.98
2019-05-21T22:13:40.936Z,89.07
2019-05-21T22:16:09.566Z,88.99
2019-05-21T22:18:38.419Z,89.24
2019-05-21T22:21:07.603Z,88.82
2019-05-21T22:23:36.345Z,88.80
2019-05-21T22:26:04.947Z,89.32
2019-05-21T22:28:33.404Z,89.63
2019-05-21T22:31:01.998Z,89.42
2019-05-21T22:33:30.618Z,89.10
2019-05-21T22:36:03.485Z,89.33
2019-05-21T22:38:32.484Z,88.76
2019-05-21T22:41:00.970Z,89.77
2019-05-21T22:43:30.413Z,89.52
2019-05-21T22:45:58.873Z,89.08
2019-05-21T22:48:27.433Z,89.21
2019-05-21T22:50:56.022Z,88.87
2019-05-21T22:53:24.714Z,88.80
2019-05-21T22:55:53.495Z,89.56
2019-05-21T22:58:22.015Z,89.12
2019-05-21T23:00:53.205Z,88.44
2019-05-21T23:03:23.598Z,89.78
2019-05-21T23:05:52.103Z,88.78
2019-05-21T23:08:20.698Z,88.78
2019-05-21T23:10:49.399Z,88.88
2019-05-21T23:13:17.872Z,88.84
2019-05-21T23:15:47.815Z,88.92
2019-05-21T23:18:16.991Z,88.36
2019-05-21T23:20:47.447Z,88.47
2019-05-21T23:23:16.274Z,88.32
2019-05-21T23:25:47.377Z,87.95
2019-05-21T23:28:15.932Z,88.56
2019-05-21T23:30:44.403Z,88.35
2019-05-21T23:33:14.528Z,88.30
2019-05-21T23:35:44.871Z,87.60
2019-05-21T23:38:13.549Z,88.13
2019-05-21T23:40:42.392Z,88.41
2019-05-21T23:43:11.051Z,87.96
2019-05-21T23:45:39.533Z,88.23
2019-05-21T23:48:09.889Z,87.78
2019-05-21T23:50:38.470Z,87.93
2019-05-21T23:53:09.080Z,87.67
2019-05-21T23:55:38.257Z,87.60
2019-05-21T23:58:08.045Z,88.21
